CheckWX is a tool to help pilots better visualize weather data.  It is not intended as a substitute for an official pre-flight weather briefing.

00:36:30 UTC

EDLV METAR
Niederrhein Airport
Weeze, Germany
Current

2 hours ago

EDLV 262250Z 30004KT CAVOK 07/04 Q1032
Observed
Mar-26 @ 22:50 UTC
Wind
  • 300° at 4 KTS
Visibility
10,000+ meters
Flight Rules
VFR
Cloud Levels
  • Clear skies
Temperature
C / 45°F
Dewpoint
C / 39°F
Humidity
81%
Altimeter
30.47" Hg
Pressure
1031.91 hPa
Previous

2 hours ago

EDLV 262220Z VRB03KT CAVOK 07/04 Q1032
Observed
Mar-26 @ 22:20 UTC
Wind
  • Variable at 3 KTS
Visibility
10,000+ meters
Flight Rules
VFR
Cloud Levels
  • Clear skies
Temperature
C / 45°F
Dewpoint
C / 39°F
Humidity
81%
Altimeter
30.47" Hg
Pressure
1031.91 hPa
Previous

3 hours ago

EDLV 262150Z 31003KT CAVOK 07/04 Q1031
Observed
Mar-26 @ 21:50 UTC
Wind
  • 310° at 3 KTS
Visibility
10,000+ meters
Flight Rules
VFR
Cloud Levels
  • Clear skies
Temperature
C / 45°F
Dewpoint
C / 39°F
Humidity
81%
Altimeter
30.44" Hg
Pressure
1030.91 hPa